Tiempo atmosférico en la estación meteorológica de Berga, Barcelona (690 m.)



Fecha
DESCASC
Temp. máxima en grados centígrados (hora)
DESCASC
Temp. mínima en grados centígrados (hora)
DESCASC
Temp. media en grados centígrados
DESCASC
Racha de viento máxima en m/sg (hora)
DESCASC
Velocidad máxima media en intervalos de 10 minutos(hora)
DESCASC
Precipitaciones diarias en mm
DESCASC
Precipitaciones de 00:00 a 06:00 en mm
DESCASC
Precipitaciones de 06:00 a 12:00 en mm
DESCASC
Precipitaciones de 12:00 a 18:00 en mm
DESCASC
Precipitaciones de 18:00 a 24:00 en mm
DESCASC
13-01-2021 6.4 (15:50) -3.3 (08:00) 1.6 3.89 (13:40) 2.5 (13:40) 0 0 0 0 0
12-01-2021 1.8 (17:20) -3 (07:00) -0.6 3.06 (04:50) 1.67 (14:10) 0 0 0 0 0
11-01-2021 1.1 (14:10) -1.5 (23:59) -0.2 3.06 (12:00) 1.67 (07:00) 0 0 0 0 0
10-01-2021 5.4 (14:40) 0.2 (23:59) 2.8 9.17 (04:30) 5 (04:00) 7.2 5.8 0.8 0.2 0.4
09-01-2021 4 (15:00) -0.1 (00:00) 1.9 12.5 (09:00) 5.83 (09:20) 16.6 1 9 2.4 4.2
08-01-2021 3.8 (14:50) -5.6 (-00:0) -0.9 4.17 (09:30) 2.5 (13:50) 0 0 0 0 0
07-01-2021 2 (13:50) -3.1 (-00:0) -0.5 6.11 (01:30) 3.33 (01:00) 0 0 0 0 0
06-01-2021 4.3 (15:50) -5.4 (-00:0) -0.5 5.28 (00:30) 3.06 (00:40) 0 0 0 0 0
05-01-2021 3.6 (15:30) -3.6 (-00:0) 0 5.28 (03:10) 3.33 (16:20) 0 0 0 0 0
04-01-2021 4.1 (16:30) -4.2 (-00:0) 0 4.44 (03:40) 2.5 (03:40) 0 0 0 0 0
03-01-2021 4.2 (15:50) -3.4 (-00:0) 0.4 5 (14:00) 2.22 (23:00) 0 0 0 0 0
02-01-2021 2 (15:50) -3.2 (-00:0) -0.6 3.61 (13:50) 1.67 (13:20) 0 0 0 0 0
01-01-2021 6.5 (14:20) -0.7 (-00:0) 2.9 8.06 (16:50) 5.83 (16:50) 1.6 0 0.2 1 0.4
31-12-2020 4.9 (14:50) -2.7 (-00:0) 1.1 3.33 (13:20) 2.22 (14:40) 0 0 0 0 0
30-12-2020 6.2 (15:50) -3.3 (-00:0) 1.4 4.72 (19:30) 2.5 (19:20) 0 0 0 0 0
29-12-2020 8.5 (15:50) -1.8 (-00:0) 3.4 8.61 (17:00) 5 (16:00) 0 0 0 0 0
28-12-2020 8.4 (14:10) -2 (-00:0) 3.2 17.78 (15:30) 10 (15:30) 0 0 0 0 0
27-12-2020 0.7 (15:50) -4.1 (-00:0) -1.7 3.61 (04:40) 2.5 (04:30) 0 0 0 0 0
26-12-2020 9.4 (13:40) -1.6 (-00:0) 3.9 20.56 (04:10) 7.5 (03:30) 0 0 0 0 0
25-12-2020 5.6 (14:30) 0 (00:00) 2.8 13.61 (11:10) 6.11 (10:10) 0 0 0 0 0
24-12-2020 6.4 (06:10) 2.6 (00:00) 4.5 4.17 (12:00) 2.22 (02:30) 0 0 0 0 0
23-12-2020 12.9 (14:20) 4.3 (00:00) 8.6 4.17 (04:30) 2.5 (13:30) 0 0 0 0 0
22-12-2020 15.1 (15:50) 5 (00:00) 10.1 5.28 (07:50) 3.33 (02:50) 0 0 0 0 0
21-12-2020 10 (16:00) 3.7 (00:00) 6.9 3.61 (11:40) 2.22 (23:20) 0 0 0 0 0
20-12-2020 11.5 (14:40) 6.3 (00:00) 8.9 3.61 (13:00) 2.22 (13:00) 1.6 1.4 0 0.2 0
19-12-2020 9.3 (00:00) 5.5 (00:00) 7.4 3.61 (23:40) 2.22 (23:59) 0 0 0 0 0
18-12-2020 12.3 (13:10) 7.6 (00:00) 10 3.61 (00:10) 2.22 (09:10) 0.8 0 0 0 0.8
17-12-2020 14.6 (15:20) 3.5 (00:00) 9.1 6.39 (04:10) 3.61 (04:10) 0 0 0 0 0

Gráficas

Temp. máximas Temp. mínimas Temp. medias Precipitaciones Rachas de viento máximas Velocidades máximas media en intervalos de 10 minutos

Datos horarios

Fecha y hora oficial Temperatura (ºC) Velocidad del viento (km/h) Dirección del viento Racha (km/h) Dirección de racha Precipitación (mm) Presión (hPa) Tendencia (hPa) Humedad (%)
2021-01-15 23:00:00 1.3 7 Este 18 Norte 0 -- -- 86
2021-01-15 22:00:00 1.1 6 Este 13 Este 0 -- -- 87
2021-01-15 21:00:00 1.2 5 Nordeste 18 Este 0 -- -- 91
2021-01-15 20:00:00 1.8 5 Este 12 Nordeste 0 -- -- 88
2021-01-15 19:00:00 2.6 4 Nordeste 10 Este 0 -- -- 85
2021-01-15 18:00:00 4.6 5 Noroeste 9 Noroeste 0 -- -- 76
2021-01-15 17:00:00 6.7 5 Sudoeste 12 Sudoeste 0 -- -- 68
2021-01-15 16:00:00 7.4 6 Sudoeste 13 Sudoeste 0 -- -- 68
2021-01-15 15:00:00 6.9 7 Sudoeste 14 Oeste 0 -- -- 70
2021-01-15 14:00:00 4.9 9 Sudoeste 13 Sudoeste 0 -- -- 76
2021-01-15 13:00:00 3.3 8 Sudoeste 14 Oeste 0 -- -- 85
2021-01-15 12:00:00 1.9 6 Sudoeste 12 Sudoeste 0 -- -- 98
2021-01-15 11:00:00 0.4 7 Sudoeste 12 Sudoeste 0 -- -- 100
2021-01-15 10:00:00 -2.9 4 Sudoeste 14 Este 0 -- -- 99
2021-01-15 09:00:00 -3.3 4 Sudoeste 10 Sudeste 0 -- -- 98
2021-01-15 08:00:00 -3.3 4 Noroeste 10 Oeste 0 -- -- 98
2021-01-15 07:00:00 -2.9 5 Oeste 8 Oeste 0 -- -- 98
2021-01-15 06:00:00 -2.8 3 Sudoeste 12 Nordeste 0 -- -- 98
2021-01-15 05:00:00 -2.7 4 Sudoeste 9 Nordeste 0 -- -- 98
2021-01-15 04:00:00 -2.7 2 Noroeste 10 Sudoeste 0 -- -- 98
2021-01-15 03:00:00 -2.3 4 Sudoeste 8 Sudoeste 0 -- -- 98
2021-01-15 02:00:00 -2.2 6 Este 14 Este 0 -- -- 98
2021-01-15 01:00:00 -1.8 2 Noroeste 7 Oeste 0 -- -- 98
2021-01-15 00:00:00 -1.4 6 Sudoeste 12 Oeste 0 -- -- 98
2021-01-14 23:00:00 -1.2 2 Sur 6 Sudoeste 0 -- -- 98
2021-01-14 22:00:00 -0.9 0 Calma 6 Este 0 -- -- 98
2021-01-14 21:00:00 -0.7 2 Nordeste 7 Nordeste 0 -- -- 98
2021-01-14 20:00:00 -0.4 5 Norte 9 Norte 0 -- -- 98
2021-01-14 19:00:00 0.2 3 Nordeste 6 Nordeste 0 -- -- 98
2021-01-14 18:00:00 0.1 4 Este 6 Nordeste 0 -- -- 98
2021-01-14 17:00:00 0.6 5 Nordeste 8 Noroeste 0 -- -- 98
2021-01-14 16:00:00 0.4 3 Noroeste 7 Sudoeste 0 -- -- 98
2021-01-14 15:00:00 -0.3 4 Sur 8 Sudoeste 0 -- -- 98
2021-01-14 14:00:00 -0.6 4 Sudoeste 8 Sur 0 -- -- 98
2021-01-14 13:00:00 -1.4 3 Sudeste 9 Sudoeste 0 -- -- 98
2021-01-14 12:00:00 -2.3 4 Oeste 8 Sudoeste 0 -- -- 98
2021-01-14 11:00:00 -2.7 3 Sudoeste 7 Sudoeste 0 -- -- 98
2021-01-14 10:00:00 -3.1 2 Sudoeste 7 Oeste 0 -- -- 98
2021-01-14 09:00:00 -3.3 2 Noroeste 7 Sudoeste 0 -- -- 98
2021-01-14 08:00:00 -3.1 3 Sur 7 Sudoeste 0 -- -- 97
2021-01-14 07:00:00 -3 2 Sur 5 Este 0 -- -- 97
2021-01-14 06:00:00 -2.8 3 Sudoeste 6 Sur 0 -- -- 97
2021-01-14 05:00:00 -2.5 3 Este 8 Noroeste 0 -- -- 97
2021-01-14 04:00:00 -2.4 4 Sudoeste 9 Oeste 0 -- -- 96
2021-01-14 03:00:00 -2 5 Sur 12 Este 0 -- -- 96
2021-01-14 02:00:00 -1.7 3 Oeste 10 Este 0 -- -- 96
2021-01-14 01:00:00 -1.3 6 Este 9 Este 0 -- -- 95
2021-01-14 00:00:00 -1.1 6 Este 8 Nordeste 0 -- -- 95
2021-01-13 23:00:00 -0.7 0 Calma 9 Nordeste 0 -- -- 95
2021-01-13 22:00:00 -0.5 5 Este 8 Este 0 -- -- 94
2021-01-13 21:00:00 0.2 2 Sur 8 Nordeste 0 -- -- 92
2021-01-13 20:00:00 0.8 5 Este 8 Este 0 -- -- 90
2021-01-13 19:00:00 1.9 4 Sudoeste 6 Sur 0 -- -- 86
2021-01-13 18:00:00 3.4 3 Sudoeste 11 Sudoeste 0 -- -- 81
2021-01-13 17:00:00 5.4 7 Sudoeste 11 Sudoeste 0 -- -- 75
2021-01-13 16:00:00 6.3 8 Sudoeste 12 Sudoeste 0 -- -- 74
2021-01-13 15:00:00 5.4 7 Sudoeste 13 Sudoeste 0 -- -- 77
2021-01-13 14:00:00 3.9 6 Sudoeste 14 Sudoeste 0 -- -- 84
2021-01-13 13:00:00 2.3 5 Sudoeste 9 Sudoeste 0 -- -- 95
2021-01-13 12:00:00 -0.8 0 Calma 12 Sudoeste 0 -- -- 97
2021-01-13 11:00:00 -1.5 6 Sudoeste 10 Sudoeste 0 -- -- 97
2021-01-13 10:00:00 -2.2 2 Este 5 Este 0 -- -- 96
2021-01-13 09:00:00 -3.2 0 Calma 6 Este 0 -- -- 96
2021-01-13 08:00:00 -3.3 0 Calma 6 Sudoeste 0 -- -- 95
2021-01-13 07:00:00 -2.8 3 Oeste 6 Nordeste 0 -- -- 95
2021-01-13 06:00:00 -2.6 4 Este 7 Oeste 0 -- -- 95
2021-01-13 05:00:00 -2.2 4 Sudeste 8 Sur 0 -- -- 95
2021-01-13 04:00:00 -2.2 2 Noroeste 9 Nordeste 0 -- -- 94
2021-01-13 03:00:00 -1.9 3 Oeste 6 Norte 0 -- -- 94
2021-01-13 02:00:00 -2.2 0 Calma 5 Este 0 -- -- 94
2021-01-13 01:00:00 -2.1 2 Sur 9 Sudoeste 0 -- -- 93
2021-01-13 00:00:00 -1.8 0 Calma 5 Este 0 -- -- 92
2021-01-12 23:00:00 -1.6 3 Oeste 8 Sudoeste 0 -- -- 91
2021-01-12 22:00:00 -1.4 2 Noroeste 5 Sudoeste 0 -- -- 91
2021-01-12 21:00:00 -1 2 Sudoeste 9 Sudoeste 0 -- -- 89
2021-01-12 20:00:00 -0.4 4 Oeste 8 Sur 0 -- -- 87
2021-01-12 19:00:00 0.5 3 Sur 9 Sudeste 0 -- -- 86
2021-01-12 18:00:00 1.2 3 Sudeste 7 Sudoeste 0 -- -- 84
2021-01-12 17:00:00 1.6 2 Este 6 Este 0 -- -- 84
2021-01-12 16:00:00 1.3 3 Este 6 Nordeste 0 -- -- 86
2021-01-12 15:00:00 0.1 3 Nordeste 10 Este 0 -- -- 91
2021-01-12 14:00:00 -1 4 Nordeste 6 Este 0 -- -- 97
2021-01-12 13:00:00 -2.4 2 Sudeste 7 Sur 0 -- -- 96
2021-01-12 12:00:00 -2.6 4 Sur 10 Oeste 0 -- -- 97
2021-01-12 11:00:00 -2.7 4 Sudoeste 8 Sudoeste 0 -- -- 97
2021-01-12 10:00:00 -2.8 4 Oeste 10 Oeste 0 -- -- 97
2021-01-12 09:00:00 -3 2 Este 7 Sudoeste 0 -- -- 96
2021-01-12 08:00:00 -3 3 Sur 8 Sudoeste 0 -- -- 96
2021-01-12 07:00:00 -3 4 Este 8 Este 0 -- -- 96
2021-01-12 06:00:00 -2.7 4 Sudoeste 8 Oeste 0 -- -- 95
2021-01-12 05:00:00 -2.5 4 Sur 11 Oeste 0 -- -- 95
2021-01-12 04:00:00 -2.3 5 Sudoeste 8 Sudoeste 0 -- -- 94
2021-01-12 03:00:00 -2.1 3 Sudoeste 9 Sudoeste 0 -- -- 94
2021-01-12 02:00:00 -1.9 2 Oeste 6 Oeste 0 -- -- 94
2021-01-12 01:00:00 -1.8 4 Sur 9 Sudoeste 0 -- -- 93
2021-01-12 00:00:00 -1.5 3 Sur 10 Sudoeste 0 -- -- 92
2021-01-11 23:00:00 -1.2 3 Sudeste 10 Sur 0 -- -- 93
2021-01-11 22:00:00 -0.9 6 Sudoeste 9 Sudoeste 0 -- -- 93
2021-01-11 21:00:00 -0.6 4 Sudeste 9 Sur 0 -- -- 92
2021-01-11 20:00:00 -0.4 3 Sur 9 Sudoeste 0 -- -- 92
2021-01-11 19:00:00 -0.1 3 Este 10 Sudoeste 0 -- -- 91
2021-01-11 18:00:00 0.3 3 Sur 10 Este 0 -- -- 90
2021-01-11 17:00:00 0.7 3 Sur 7 Sudoeste 0 -- -- 90
2021-01-11 16:00:00 0.9 4 Sudoeste 11 Sudoeste 0 -- -- 89
2021-01-11 15:00:00 1 3 Sur 8 Sudoeste 0 -- -- 88
2021-01-11 14:00:00 0.9 3 Sudeste 9 Este 0 -- -- 89
2021-01-11 13:00:00 0.8 5 Sudeste 10 Sudoeste 0 -- -- 93
2021-01-11 12:00:00 0.6 4 Sudoeste 11 Sur 0 -- -- 97
2021-01-11 11:00:00 -0.1 2 Noroeste 7 Sudoeste 0 -- -- 98
2021-01-11 10:00:00 -0.4 3 Oeste 6 Oeste 0 -- -- 98
2021-01-11 09:00:00 -0.6 3 Sudoeste 7 Sudoeste 0 -- -- 98
2021-01-11 08:00:00 -0.7 4 Sur 8 Sudoeste 0 -- -- 98
2021-01-11 07:00:00 -0.6 6 Sudoeste 9 Sudoeste 0 -- -- 97
2021-01-11 06:00:00 -0.5 4 Sur 6 Sudoeste 0 -- -- 97
2021-01-11 05:00:00 -0.5 3 Sudoeste 9 Sur 0 -- -- 97
2021-01-11 04:00:00 -0.4 3 Sur 8 Sudoeste 0 -- -- 97
2021-01-11 03:00:00 -0.3 4 Sur 6 Sur 0 -- -- 97
2021-01-11 02:00:00 -0.3 3 Sudoeste 8 Sudoeste 0 -- -- 96
2021-01-11 01:00:00 -0.2 4 Sudoeste 10 Sudoeste 0 -- -- 96
2021-01-11 00:00:00 0.2 5 Sur 11 Sur 0 -- -- 96
2021-01-10 23:00:00 0.9 5 Sur 10 Sur 0 -- -- 96
2021-01-10 22:00:00 1.2 5 Sudoeste 8 Oeste 0 -- -- 96
2021-01-10 21:00:00 1.7 4 Oeste 9 Oeste 0.4 -- -- 95
2021-01-10 20:00:00 2.6 4 Sudoeste 6 Sudoeste 0 -- -- 93
2021-01-10 19:00:00 3.3 3 Sur 8 Sudoeste 0 -- -- 92
2021-01-10 18:00:00 4.1 3 Sudoeste 9 Sudoeste 0 -- -- 91
2021-01-10 17:00:00 4.8 5 Sudoeste 9 Oeste 0 -- -- 89
2021-01-10 16:00:00 5.3 4 Oeste 8 Oeste 0 -- -- 84
2021-01-10 15:00:00 5.4 4 Sudoeste 9 Oeste 0 -- -- 86
2021-01-10 14:00:00 5.3 4 Sudoeste 8 Oeste 0 -- -- 87
2021-01-10 13:00:00 4 2 Nordeste 8 Sudeste 0.2 -- -- 89
2021-01-10 12:00:00 3.3 3 Nordeste 16 Nordeste 0 -- -- 90
2021-01-10 11:00:00 3.2 6 Nordeste 11 Este 0.2 -- -- 90
2021-01-10 10:00:00 3.2 3 Noroeste 23 Este 0 -- -- 88
2021-01-10 09:00:00 3 10 Este 24 Este 0.2 -- -- 88
2021-01-10 08:00:00 3 10 Este 23 Nordeste 0.4 -- -- 88
2021-01-10 07:00:00 3.6 14 Nordeste 27 Este 0 -- -- 83
2021-01-10 06:00:00 3.4 14 Nordeste 26 Este 0.2 -- -- 85
2021-01-10 05:00:00 3.1 12 Nordeste 33 Nordeste 1 -- -- 88
2021-01-10 04:00:00 2.6 18 Nordeste 29 Nordeste 2.4 -- -- 89
2021-01-10 03:00:00 2.6 14 Nordeste 23 Nordeste 1.8 -- -- 89
2021-01-10 02:00:00 3.4 13 Este 28 Nordeste 0.2 -- -- 83
2021-01-10 01:00:00 3.5 12 Nordeste 31 Este 0.2 -- -- 82
2021-01-10 00:00:00 3.2 16 Nordeste 31 Nordeste 0 -- -- 84
2021-01-09 23:00:00 2.9 13 Nordeste 30 Este 0.4 -- -- 86
2021-01-09 22:00:00 3.7 17 Nordeste 35 Nordeste 0.2 -- -- 80
2021-01-09 21:00:00 3.2 15 Nordeste 33 Este 0.4 -- -- 84
2021-01-09 20:00:00 2.7 19 Nordeste 35 Nordeste 2 -- -- 89
2021-01-09 19:00:00 2.6 15 Nordeste 33 Nordeste 1.2 -- -- 86
2021-01-09 18:00:00 3.9 15 Nordeste 32 Nordeste 0.2 -- -- 78
2021-01-09 17:00:00 3.7 14 Nordeste 29 Este 0 -- -- 80
2021-01-09 16:00:00 3.8 15 Nordeste 43 Este 0.2 -- -- 80
2021-01-09 15:00:00 4 18 Nordeste 44 Este 0 -- -- 78
2021-01-09 14:00:00 3.3 19 Nordeste 39 Nordeste 0.2 -- -- 84
2021-01-09 13:00:00 2.4 15 Nordeste 31 Este 1.8 -- -- 90
2021-01-09 12:00:00 2 16 Nordeste 31 Nordeste 2.2 -- -- 91
2021-01-09 11:00:00 1.7 15 Nordeste 28 Nordeste 2.2 -- -- 92
2021-01-09 10:00:00 1.5 19 Este 38 Nordeste 2 -- -- 92
2021-01-09 09:00:00 1.4 18 Nordeste 45 Nordeste 1.2 -- -- 91
2021-01-09 08:00:00 1.2 14 Nordeste 31 Este 1 -- -- 92
2021-01-09 07:00:00 1.2 15 Nordeste 29 Este 0.4 -- -- 89
2021-01-09 06:00:00 0.9 15 Nordeste 27 Nordeste 0.4 -- -- 91
2021-01-09 05:00:00 0.7 17 Nordeste 31 Nordeste 0.2 -- -- 90
2021-01-09 04:00:00 0.2 14 Nordeste 31 Este 0.4 -- -- 91
2021-01-09 03:00:00 1.3 9 Nordeste 22 Nordeste 0 -- -- 79
2021-01-09 02:00:00 1.4 12 Nordeste 22 Este 0 -- -- 65
2021-01-09 01:00:00 0.2 5 Este 12 Sudeste 0 -- -- 76
2021-01-09 00:00:00 0 4 Nordeste 8 Nordeste 0 -- -- 78
2021-01-08 23:00:00 -0.1 4 Este 6 Nordeste 0 -- -- 78
2021-01-08 22:00:00 -0.1 4 Este 6 Nordeste 0 -- -- 77
2021-01-08 21:00:00 -0.1 4 Este 8 Este 0 -- -- 76
2021-01-08 20:00:00 0.5 4 Sudoeste 7 Sudoeste 0 -- -- 72
2021-01-08 19:00:00 0.8 4 Sudoeste 6 Sudoeste 0 -- -- 71
2021-01-08 18:00:00 1.2 -- -- -- -- 0 -- -- 68
2021-01-08 17:00:00 2.2 3 Sudoeste 9 Sudoeste 0 -- -- 65
2021-01-08 16:00:00 3 4 Sudoeste 12 Sudoeste 0 -- -- 59
2021-01-08 15:00:00 3.7 3 Sudoeste 12 Sudoeste 0 -- -- 54
2021-01-08 14:00:00 3.4 9 Sudoeste 13 Sudoeste 0 -- -- 61
2021-01-08 13:00:00 2.7 9 Sudoeste 13 Sudoeste 0 -- -- 62
2021-01-08 12:00:00 1.1 3 Sudoeste 9 Sudoeste 0 -- -- 64
2021-01-08 11:00:00 -1.4 2 Este 7 Este 0 -- -- 61
2021-01-08 10:00:00 -4.1 4 Este 15 Este 0 -- -- 72
2021-01-08 09:00:00 -5.5 7 Este 13 Nordeste 0 -- -- 77
2021-01-08 08:00:00 -5.2 6 Este 11 Nordeste 0 -- -- 78
2021-01-08 07:00:00 -4.9 4 Este 11 Este 0 -- -- 78
2021-01-08 06:00:00 -4.3 4 Este 14 Nordeste 0 -- -- 77
2021-01-08 05:00:00 -4 3 Este 9 Nordeste 0 -- -- 83
2021-01-08 04:00:00 -3.8 3 Este 7 Este 0 -- -- 89
2021-01-08 03:00:00 -3.1 5 Este 8 Este 0 -- -- 91
2021-01-08 02:00:00 -3 4 Este 6 Este 0 -- -- 89
2021-01-08 01:00:00 -2.6 0 Calma 6 Este 0 -- -- 88
2021-01-08 00:00:00 -2 4 Este 5 Este 0 -- -- 86
2021-01-07 23:00:00 -1.6 3 Oeste 8 Sudoeste 0 -- -- 85
2021-01-07 22:00:00 -1.2 0 Calma 6 Sudoeste 0 -- -- 83
2021-01-07 21:00:00 -0.7 5 Oeste 7 Oeste 0 -- -- 80
2021-01-07 20:00:00 0.1 0 Calma 6 Sudoeste 0 -- -- 75
2021-01-07 19:00:00 0.4 4 Este 6 Nordeste 0 -- -- 74
2021-01-07 18:00:00 0.8 2 Sur 4 Sudoeste 0 -- -- 72
2021-01-07 17:00:00 1.3 2 Oeste 4 Oeste 0 -- -- 69
2021-01-07 16:00:00 1.8 2 Noroeste 7 Sudoeste 0 -- -- 67
2021-01-07 15:00:00 1.9 5 Sudoeste 9 Sur 0 -- -- 66
2021-01-07 14:00:00 2 6 Sudoeste 10 Sudoeste 0 -- -- 65
2021-01-07 13:00:00 1.4 5 Sudoeste 9 Sudoeste 0 -- -- 65
2021-01-07 12:00:00 0.9 3 Este 13 Nordeste 0 -- -- 59
2021-01-07 11:00:00 -0.5 7 Este 13 Este 0 -- -- 64
2021-01-07 10:00:00 -1.9 8 Este 14 Este 0 -- -- 69
2021-01-07 09:00:00 -2.7 5 Nordeste 16 Este 0 -- -- 73
2021-01-07 08:00:00 -2.7 9 Este 13 Este 0 -- -- 73
2021-01-07 07:00:00 -2.1 7 Este 14 Este 0 -- -- 71
2021-01-07 06:00:00 -1.7 8 Este 15 Este 0 -- -- 68
2021-01-07 05:00:00 -1.8 8 Este 18 Este 0 -- -- 71
2021-01-07 04:00:00 -2.6 9 Este 15 Este 0 -- -- 73
2021-01-07 03:00:00 -2.3 8 Este 20 Este 0 -- -- 72
2021-01-07 02:00:00 -1.6 10 Nordeste 22 Este 0 -- -- 70
2021-01-07 01:00:00 -2.6 12 Nordeste 18 Nordeste 0 -- -- 74
2021-01-07 00:00:00 -2.9 6 Este 13 Nordeste 0 -- -- 77
2021-01-06 23:00:00 -2.6 7 Este 11 Nordeste 0 -- -- 77
2021-01-06 22:00:00 -2.2 6 Este 11 Este 0 -- -- 76
2021-01-06 21:00:00 -1.7 7 Este 12 Este 0 -- -- 76
2021-01-06 20:00:00 -1.1 6 Este 10 Este 0 -- -- 76
2021-01-06 19:00:00 -0.3 4 Nordeste 6 Este 0 -- -- 71
2021-01-06 18:00:00 1.4 2 Sur 8 Oeste 0 -- -- 64
2021-01-06 17:00:00 3.5 5 Oeste 17 Sudoeste 0 -- -- 57
2021-01-06 16:00:00 4.1 8 Sudoeste 15 Sudoeste 0 -- -- 57
2021-01-06 15:00:00 4 8 Sudoeste 17 Sudoeste 0 -- -- 56
2021-01-06 14:00:00 3.2 9 Oeste 13 Sudoeste 0 -- -- 58
2021-01-06 13:00:00 2 5 Sudoeste 11 Sudoeste 0 -- -- 61
2021-01-06 12:00:00 0.1 6 Sudoeste 14 Oeste 0 -- -- 71
2021-01-06 11:00:00 -0.5 6 Sudoeste 10 Este 0 -- -- 66
2021-01-06 10:00:00 -3.8 6 Este 15 Nordeste 0 -- -- 66
2021-01-06 09:00:00 -5.3 8 Este 14 Este 0 -- -- 69
2021-01-06 08:00:00 -5.4 8 Este 14 Este 0 -- -- 73
2021-01-06 07:00:00 -5.2 7 Este 12 Este 0 -- -- 75
2021-01-06 06:00:00 -5.1 7 Este 17 Este 0 -- -- 76
2021-01-06 05:00:00 -4.9 8 Este 14 Este 0 -- -- 79
2021-01-06 04:00:00 -4.6 8 Este 15 Este 0 -- -- 80
2021-01-06 03:00:00 -4.4 8 Este 12 Este 0 -- -- 81
2021-01-06 02:00:00 -3.8 3 Nordeste 11 Este 0 -- -- 80
2021-01-06 01:00:00 -2.8 7 Este 19 Nordeste 0 -- -- 78
2021-01-06 00:00:00 -2.7 8 Nordeste 15 Este 0 -- -- 82
2021-01-05 23:00:00 -3 3 Nordeste 6 Nordeste 0 -- -- 89
2021-01-05 22:00:00 -2.8 3 Nordeste 9 Este 0 -- -- 90
2021-01-05 21:00:00 -2.4 3 Sudeste 6 Este 0 -- -- 88
2021-01-05 20:00:00 -1.8 2 Sur 9 Sudoeste 0 -- -- 84
2021-01-05 19:00:00 -0.6 0 Calma 12 Sur 0 -- -- 80
2021-01-05 18:00:00 0.4 7 Sur 14 Sudoeste 0 -- -- 76
2021-01-05 17:00:00 2.8 12 Sudoeste 17 Sudoeste 0 -- -- 65
2021-01-05 16:00:00 3.2 4 Este 16 Sudoeste 0 -- -- 63
2021-01-05 15:00:00 2.8 5 Sudoeste 14 Sudoeste 0 -- -- 67
2021-01-05 14:00:00 2.1 5 Oeste 13 Sur 0 -- -- 73
2021-01-05 13:00:00 0.9 6 Sudoeste 11 Sudoeste 0 -- -- 77
2021-01-05 12:00:00 0.7 5 Sudoeste 10 Sudoeste 0 -- -- 75
2021-01-05 11:00:00 -0.6 4 Este 8 Este 0 -- -- 74
2021-01-05 10:00:00 -1.5 5 Este 15 Este 0 -- -- 76
2021-01-05 09:00:00 -3 8 Este 16 Este 0 -- -- 79
2021-01-05 08:00:00 -3.5 7 Este 12 Este 0 -- -- 81
2021-01-05 07:00:00 -3.6 8 Este 13 Este 0 -- -- 83
2021-01-05 06:00:00 -3.3 7 Este 15 Este 0 -- -- 82
2021-01-05 05:00:00 -2.9 6 Este 16 Nordeste 0 -- -- 80
2021-01-05 04:00:00 -1.3 9 Sudeste 19 Este 0 -- -- 74
2021-01-05 03:00:00 -2.1 8 Este 14 Sudeste 0 -- -- 79
2021-01-05 02:00:00 -2.2 7 Este 13 Sudeste 0 -- -- 82
2021-01-05 01:00:00 -2 2 Nordeste 12 Este 0 -- -- 79
2021-01-05 00:00:00 -2 5 Nordeste 11 Este 0 -- -- 82
2021-01-04 23:00:00 -1.7 3 Nordeste 14 Nordeste 0 -- -- 81
2021-01-04 22:00:00 -1.7 5 Este 7 Este 0 -- -- 82
2021-01-04 21:00:00 -0.5 4 Nordeste 9 Este 0 -- -- 78
2021-01-04 20:00:00 0 6 Este 13 Nordeste 0 -- -- 76
2021-01-04 19:00:00 0.2 2 Este 11 Nordeste 0 -- -- 76
2021-01-04 18:00:00 1.8 6 Nordeste 9 Nordeste 0 -- -- 69
2021-01-04 17:00:00 3.5 5 Este 10 Norte 0 -- -- 64
2021-01-04 16:00:00 3.4 3 Este 8 Nordeste 0 -- -- 65
2021-01-04 15:00:00 3.2 5 Este 12 Sur 0 -- -- 68
2021-01-04 14:00:00 2 4 Sudoeste 12 Oeste 0 -- -- 76
2021-01-04 13:00:00 0.3 7 Sudoeste 15 Sudoeste 0 -- -- 82
2021-01-04 12:00:00 -1.5 7 Sudoeste 12 Oeste 0 -- -- 85
2021-01-04 11:00:00 -2.4 3 Sudeste 6 Sudoeste 0 -- -- 82
2021-01-04 10:00:00 -3.6 2 Este 8 Este 0 -- -- 84
2021-01-04 09:00:00 -3.8 3 Nordeste 10 Este 0 -- -- 81
2021-01-04 08:00:00 -4.1 6 Este 10 Este 0 -- -- 82
2021-01-04 07:00:00 -4.1 5 Este 9 Este 0 -- -- 80
2021-01-04 06:00:00 -3.8 5 Este 13 Este 0 -- -- 81
2021-01-04 05:00:00 -3.7 4 Este 10 Nordeste 0 -- -- 82
2021-01-04 04:00:00 -3 6 Nordeste 16 Nordeste 0 -- -- 77
2021-01-04 03:00:00 -3.7 7 Este 12 Este 0 -- -- 81
2021-01-04 02:00:00 -3.1 5 Este 14 Nordeste 0 -- -- 79
2021-01-04 01:00:00 -3.1 6 Este 12 Este 0 -- -- 80
2021-01-04 00:00:00 -2.6 7 Este 13 Este 0 -- -- 78
2021-01-03 23:00:00 -2.2 8 Este 12 Este 0 -- -- 77
2021-01-03 22:00:00 -1.9 5 Este 12 Este 0 -- -- 77
2021-01-03 21:00:00 -1.4 5 Este 10 Este 0 -- -- 75
2021-01-03 20:00:00 -0.7 6 Este 10 Este 0 -- -- 74
2021-01-03 19:00:00 -0.3 6 Este 8 Este 0 -- -- 72
2021-01-03 18:00:00 1.4 5 Este 9 Este 0 -- -- 64
2021-01-03 17:00:00 3.4 3 Este 8 Este 0 -- -- 56
2021-01-03 16:00:00 3.9 3 Este 13 Sudoeste 0 -- -- 55
2021-01-03 15:00:00 3.6 6 Sudoeste 14 Sudoeste 0 -- -- 60
2021-01-03 14:00:00 2.1 6 Sudoeste 18 Sudoeste 0 -- -- 67
2021-01-03 13:00:00 1.3 8 Sudoeste 13 Sudoeste 0 -- -- 77
2021-01-03 12:00:00 0 3 Sur 10 Sudoeste 0 -- -- 78
2021-01-03 11:00:00 -1.3 8 Oeste 12 Sudoeste 0 -- -- 82
2021-01-03 10:00:00 -3 5 Sudoeste 9 Sudoeste 0 -- -- 89
2021-01-03 09:00:00 -3.3 3 Sudeste 8 Este 0 -- -- 89
2021-01-03 08:00:00 -3.3 4 Sudoeste 9 Sudoeste 0 -- -- 88
2021-01-03 07:00:00 -3.2 4 Sudoeste 8 Sudoeste 0 -- -- 89
2021-01-03 06:00:00 -3.1 0 Calma 5 Sudoeste 0 -- -- 88
2021-01-03 05:00:00 -3.3 2 Sudoeste 10 Sudoeste 0 -- -- 91
2021-01-03 04:00:00 -2.7 5 Oeste 7 Sudoeste 0 -- -- 92
2021-01-03 03:00:00 -2.3 5 Oeste 8 Oeste 0 -- -- 92
2021-01-03 02:00:00 -1.6 4 Sudoeste 8 Sudeste 0 -- -- 92
2021-01-03 01:00:00 -1.5 0 Calma 8 Sur 0 -- -- 93
2021-01-03 00:00:00 -1.5 3 Sudoeste 5 Sudoeste 0 -- -- 92
2021-01-02 23:00:00 -1.1 3 Nordeste 7 Este 0 -- -- 92
2021-01-02 22:00:00 -0.6 3 Este 8 Este 0 -- -- 91
2021-01-02 21:00:00 -0.4 3 Sudoeste 7 Sudoeste 0 -- -- 89
2021-01-02 20:00:00 0 2 Noroeste 6 Oeste 0 -- -- 89
2021-01-02 19:00:00 0.5 3 Este 6 Este 0 -- -- 87
2021-01-02 18:00:00 0.9 3 Sudeste 7 Sudoeste 0 -- -- 85
2021-01-02 17:00:00 1.6 4 Sudoeste 7 Sudoeste 0 -- -- 83
2021-01-02 16:00:00 2 4 Oeste 10 Sudoeste 0 -- -- 83
2021-01-02 15:00:00 1.5 6 Sudoeste 10 Sudoeste 0 -- -- 85
2021-01-02 14:00:00 0.9 5 Sudoeste 13 Sudoeste 0 -- -- 89